Time;durP1;ratioP1;P1;durP2;ratioP2;P2;SDS_P1;SDS_P2;PMS_P1;PMS_P2;Temp;Humidity;BMP_temperature;BMP_pressure;BME280_temperature;BME280_humidity;BME280_pressure;Samples;Min_cycle;Max_cycle;Signal;HPM_P1;HPM_P2
2022/12/29 00:00:00;;;;;;;33.38;15.55;;;-0.40;99.90;;;;;;4904293;29;20167;-73
2022/12/29 00:02:25;;;;;;;30.55;15.73;;;-1.50;99.90;;;;;;4921124;29;20028;-73
2022/12/29 00:04:51;;;;;;;33.05;14.70;;;-1.50;99.90;;;;;;4921195;29;20095;-73
2022/12/29 00:07:18;;;;;;;29.10;14.32;;;-1.50;99.90;;;;;;4921451;29;20032;-73
2022/12/29 00:09:43;;;;;;;31.02;15.48;;;-1.40;99.90;;;;;;4921206;29;20040;-73
2022/12/29 00:12:09;;;;;;;26.58;14.52;;;-1.50;99.90;;;;;;4904084;29;20087;-73
2022/12/29 00:17:19;;;;;;;29.35;14.38;;;-1.60;99.90;;;;;;4920813;29;20042;-72
2022/12/29 00:36:28;;;;;;;28.42;14.20;;;-1.30;99.90;;;;;;4919879;29;20067;-73
2022/12/29 00:44:27;;;;;;;26.08;13.10;;;-1.70;99.90;;;;;;4920603;29;20123;-73
2022/12/29 00:46:53;;;;;;;35.10;15.90;;;-1.80;99.90;;;;;;4903605;29;20056;-73
2022/12/29 00:49:30;;;;;;;27.90;14.75;;;-1.90;99.90;;;;;;4920250;29;20028;-73
2022/12/29 00:51:59;;;;;;;28.40;14.85;;;-1.90;99.90;;;;;;4903339;29;20029;-73
2022/12/29 00:54:25;;;;;;;28.33;13.63;;;-1.60;99.90;;;;;;4903717;29;20032;-72
2022/12/29 00:56:52;;;;;;;27.30;14.68;;;-2.00;99.90;;;;;;4920110;29;20393;-73
2022/12/29 00:59:18;;;;;;;28.98;13.63;;;-2.00;99.90;;;;;;4921775;29;20032;-73
2022/12/29 01:01:44;;;;;;;29.90;14.30;;;-2.00;99.90;;;;;;4921354;29;20457;-73
2022/12/29 01:04:10;;;;;;;28.35;14.10;;;-2.00;99.90;;;;;;4903413;29;20092;-73
2022/12/29 01:06:38;;;;;;;31.73;15.75;;;-1.90;99.90;;;;;;4903378;29;20032;-73
2022/12/29 01:11:49;;;;;;;26.52;13.80;;;-2.00;99.90;;;;;;4920258;29;20088;-72
2022/12/29 01:14:15;;;;;;;27.50;13.50;;;-2.00;99.90;;;;;;4903092;29;20429;-73
2022/12/29 01:16:40;;;;;;;30.20;14.90;;;-2.10;99.90;;;;;;4903160;29;20050;-73
2022/12/29 01:19:06;;;;;;;29.02;15.02;;;-2.00;99.90;;;;;;4920283;29;20501;-73
2022/12/29 01:21:32;;;;;;;31.85;13.05;;;-2.10;99.90;;;;;;4920072;29;20108;-73
2022/12/29 01:23:58;;;;;;;28.55;14.15;;;-1.60;99.90;;;;;;4920075;29;20080;-73
2022/12/29 01:26:24;;;;;;;28.02;13.52;;;-2.00;99.90;;;;;;4920263;29;20423;-73
2022/12/29 01:28:50;;;;;;;27.65;14.00;;;-2.00;99.90;;;;;;4920400;29;20027;-73
2022/12/29 01:31:15;;;;;;;26.88;13.75;;;-1.90;99.90;;;;;;4920612;29;20114;-73
2022/12/29 01:33:42;;;;;;;27.63;14.63;;;-1.50;99.90;;;;;;4920492;29;20039;-72
2022/12/29 01:36:11;;;;;;;36.13;17.25;;;-1.50;99.90;;;;;;4919928;29;20498;-73
2022/12/29 01:38:38;;;;;;;37.72;16.58;;;-2.20;99.90;;;;;;4919905;29;20134;-73
2022/12/29 01:41:04;;;;;;;29.05;13.75;;;-2.30;99.90;;;;;;4902743;29;20148;-73
2022/12/29 01:43:53;;;;;;;27.20;13.32;;;-2.30;99.90;;;;;;4919262;29;20024;-73
2022/12/29 01:46:37;;;;;;;26.25;12.90;;;-2.40;99.90;;;;;;4902042;29;20481;-73
2022/12/29 01:49:12;;;;;;;28.92;12.85;;;-2.40;99.90;;;;;;4901712;29;20038;-73
2022/12/29 01:51:42;;;;;;;27.13;12.75;;;-2.40;99.90;;;;;;4919244;29;20024;-73
2022/12/29 01:54:13;;;;;;;27.02;13.55;;;-2.30;99.90;;;;;;4919406;29;20088;-73
2022/12/29 01:56:39;;;;;;;33.47;14.57;;;-2.30;99.90;;;;;;4906698;29;20083;-73
2022/12/29 01:59:12;;;;;;;27.58;12.35;;;-2.40;99.90;;;;;;4923896;29;20064;-73
2022/12/29 02:01:38;;;;;;;25.40;13.10;;;-2.40;99.90;;;;;;4904294;29;20028;-73
2022/12/29 02:04:04;;;;;;;28.25;12.60;;;-2.40;99.90;;;;;;4920385;29;20087;-73
2022/12/29 02:06:35;;;;;;;30.58;13.52;;;-2.50;99.90;;;;;;4902734;29;20384;-73
2022/12/29 02:09:01;;;;;;;24.52;12.93;;;-2.10;99.90;;;;;;4918307;29;20028;-73
2022/12/29 02:11:28;;;;;;;27.00;13.90;;;-2.40;99.90;;;;;;4901958;29;20024;-73
2022/12/29 02:13:54;;;;;;;24.83;12.55;;;-2.30;99.90;;;;;;4918877;29;20362;-73
2022/12/29 02:17:14;;;;;;;24.65;12.45;;;-2.00;99.90;;;;;;4901780;29;20079;-73
2022/12/29 02:20:30;;;;;;;25.98;12.60;;;-2.40;99.90;;;;;;4886210;29;20481;-73
2022/12/29 02:23:01;;;;;;;34.70;14.43;;;-2.40;99.90;;;;;;4885131;29;20048;-73
2022/12/29 02:25:46;;;;;;;25.48;11.70;;;-2.50;99.90;;;;;;4918088;29;20047;-73
2022/12/29 02:28:23;;;;;;;27.27;12.55;;;-2.50;99.90;;;;;;4901969;29;20088;-73
2022/12/29 02:31:03;;;;;;;25.73;12.45;;;-2.60;99.90;;;;;;4918133;29;20436;-73
2022/12/29 02:33:43;;;;;;;26.08;11.80;;;-2.60;99.90;;;;;;4918227;29;20385;-73
2022/12/29 02:36:31;;;;;;;25.58;13.13;;;-2.60;99.90;;;;;;4901869;29;20048;-73
2022/12/29 02:39:15;;;;;;;21.27;11.52;;;-2.70;99.90;;;;;;4918285;29;20039;-73
2022/12/29 02:41:50;;;;;;;26.38;11.13;;;-2.70;99.90;;;;;;4901535;29;20032;-73
2022/12/29 02:44:37;;;;;;;28.00;13.07;;;-2.70;99.90;;;;;;4901343;29;20047;-73
2022/12/29 02:47:30;;;;;;;25.30;12.88;;;-2.70;99.90;;;;;;4917898;29;20091;-72
2022/12/29 02:50:05;;;;;;;25.25;12.02;;;-2.60;99.90;;;;;;4900614;29;20091;-73
2022/12/29 02:52:37;;;;;;;20.90;11.18;;;-2.70;99.90;;;;;;4901301;29;20031;-73
2022/12/29 02:55:03;;;;;;;28.00;12.43;;;-2.50;99.90;;;;;;4901330;29;20370;-73
2022/12/29 02:57:34;;;;;;;22.05;12.02;;;-2.70;99.90;;;;;;4918147;29;20028;-73
2022/12/29 03:00:17;;;;;;;20.92;11.57;;;-2.70;99.90;;;;;;4900864;29;20028;-73
2022/12/29 03:03:25;;;;;;;23.55;11.20;;;-2.50;99.90;;;;;;4900958;29;20029;-73
2022/12/29 03:05:53;;;;;;;23.77;12.23;;;-2.70;99.90;;;;;;4900891;29;20486;-73
2022/12/29 03:08:40;;;;;;;26.35;11.70;;;-2.70;99.90;;;;;;4900797;29;20042;-73
2022/12/29 03:16:52;;;;;;;22.38;11.80;;;-2.60;99.90;;;;;;4917485;29;20040;-73
2022/12/29 03:19:18;;;;;;;23.48;11.68;;;-2.60;99.90;;;;;;4917903;29;20385;-73
2022/12/29 03:24:47;;;;;;;27.83;12.20;;;-2.60;99.90;;;;;;4917537;29;20039;-73
2022/12/29 03:27:19;;;;;;;22.60;12.45;;;-2.60;99.90;;;;;;4900605;29;20056;-73
2022/12/29 03:29:55;;;;;;;22.33;12.93;;;-1.70;99.90;;;;;;4900841;29;20065;-73
2022/12/29 03:32:28;;;;;;;22.88;11.85;;;-2.60;99.90;;;;;;4900899;29;20536;-73
2022/12/29 03:34:54;;;;;;;27.13;12.40;;;-2.60;99.90;;;;;;4917475;29;20521;-73
2022/12/29 03:37:29;;;;;;;26.25;12.05;;;-2.70;99.90;;;;;;4917341;29;20051;-73
2022/12/29 03:39:56;;;;;;;23.52;11.55;;;-2.70;99.90;;;;;;4917382;29;20032;-73
2022/12/29 03:42:27;;;;;;;27.38;11.63;;;-2.70;99.90;;;;;;4917516;29;20039;-73
2022/12/29 03:44:56;;;;;;;22.33;11.73;;;-1.90;99.90;;;;;;4917858;29;20043;-73
2022/12/29 03:47:23;;;;;;;26.33;12.02;;;-2.80;99.90;;;;;;4917151;29;20063;-73
2022/12/29 03:49:49;;;;;;;24.85;12.23;;;-2.80;99.90;;;;;;4900357;29;20036;-73
2022/12/29 03:52:15;;;;;;;22.65;12.38;;;-2.80;99.90;;;;;;4918010;29;20029;-73
2022/12/29 03:54:41;;;;;;;24.17;11.90;;;-2.80;99.90;;;;;;4918332;29;20496;-73
2022/12/29 03:57:06;;;;;;;25.90;13.05;;;-2.70;99.90;;;;;;4901167;29;20088;-73
2022/12/29 03:59:32;;;;;;;26.13;12.30;;;-2.70;99.90;;;;;;4917764;29;20059;-73
2022/12/29 04:01:58;;;;;;;28.48;11.63;;;-2.70;99.90;;;;;;4900432;29;20100;-73
2022/12/29 04:04:23;;;;;;;24.00;11.80;;;-2.70;99.90;;;;;;4900354;29;20028;-73
2022/12/29 04:06:49;;;;;;;23.13;11.90;;;-2.70;99.90;;;;;;4917680;29;20469;-73
2022/12/29 04:09:15;;;;;;;20.58;11.82;;;-2.60;99.90;;;;;;4900551;29;20032;-73
2022/12/29 04:11:40;;;;;;;23.88;12.10;;;-2.50;99.90;;;;;;4903075;29;20381;-73
2022/12/29 04:14:06;;;;;;;21.10;12.13;;;-2.50;99.90;;;;;;4904594;29;20081;-73
2022/12/29 04:16:35;;;;;;;22.08;10.93;;;-2.50;99.90;;;;;;4903948;29;20377;-73
2022/12/29 04:19:01;;;;;;;29.65;12.18;;;-2.40;99.90;;;;;;4921055;29;20023;-73
2022/12/29 04:21:27;;;;;;;23.00;11.35;;;-1.70;99.90;;;;;;4920474;29;20073;-73
2022/12/29 04:23:53;;;;;;;21.60;12.00;;;-2.40;99.90;;;;;;4920615;29;20477;-73
2022/12/29 04:26:18;;;;;;;24.85;12.50;;;-2.40;99.90;;;;;;4920638;29;20036;-73
2022/12/29 04:28:44;;;;;;;20.70;12.13;;;-2.40;99.90;;;;;;4903639;29;20111;-73
2022/12/29 04:31:10;;;;;;;24.90;12.50;;;-1.60;99.90;;;;;;4903953;29;20385;-73
2022/12/29 04:33:35;;;;;;;24.17;11.63;;;-2.50;99.90;;;;;;4920308;29;20131;-73
2022/12/29 04:36:01;;;;;;;26.75;12.35;;;-2.50;99.90;;;;;;4903270;29;20103;-73
2022/12/29 04:38:27;;;;;;;26.55;12.95;;;-2.40;99.90;;;;;;4920749;29;20034;-73
2022/12/29 04:40:53;;;;;;;27.27;12.30;;;-2.40;99.90;;;;;;4903464;29;20371;-73
2022/12/29 04:43:19;;;;;;;23.98;12.85;;;-2.50;99.90;;;;;;4920624;29;20378;-73
2022/12/29 04:45:47;;;;;;;26.63;13.43;;;-2.50;99.90;;;;;;4920122;29;20031;-73
2022/12/29 04:48:13;;;;;;;;;;;-2.00;99.90;;;;;;4920535;29;20028;-73
2022/12/29 04:50:39;;;;;;;26.48;13.65;;;-2.40;99.90;;;;;;4903078;29;19971;-73
2022/12/29 04:53:05;;;;;;;27.63;12.98;;;-2.20;99.90;;;;;;4919913;29;20039;-73
2022/12/29 04:55:31;;;;;;;24.85;12.20;;;-2.40;99.90;;;;;;4920159;29;20035;-73
2022/12/29 04:57:57;;;;;;;30.73;12.57;;;-2.50;99.90;;;;;;4920203;29;20512;-73
2022/12/29 05:00:23;;;;;;;22.20;11.13;;;-1.50;99.90;;;;;;4919740;29;20028;-73
2022/12/29 05:02:48;;;;;;;32.08;13.45;;;-2.60;99.90;;;;;;4902916;29;20028;-73
2022/12/29 05:05:14;;;;;;;26.38;12.82;;;-2.50;99.90;;;;;;4902743;29;20060;-73
2022/12/29 05:07:40;;;;;;;24.42;12.40;;;-2.50;99.90;;;;;;4902913;29;20028;-73
2022/12/29 05:10:07;;;;;;;28.38;13.25;;;-2.50;99.90;;;;;;4919968;29;20039;-73
2022/12/29 05:12:33;;;;;;;25.83;12.68;;;-2.50;99.90;;;;;;4902761;29;20051;-73
2022/12/29 05:14:59;;;;;;;20.10;11.77;;;-2.20;99.90;;;;;;4919597;29;20043;-73
2022/12/29 05:17:25;;;;;;;21.42;11.35;;;-2.60;99.90;;;;;;4919792;29;20036;-73
2022/12/29 05:19:52;;;;;;;19.60;11.32;;;-2.50;99.90;;;;;;4903483;29;20099;-73
2022/12/29 05:22:18;;;;;;;21.52;11.55;;;-2.60;99.90;;;;;;4919536;29;20032;-73
2022/12/29 05:24:43;;;;;;;24.65;12.35;;;-2.60;99.90;;;;;;4920154;29;20036;-73
2022/12/29 05:27:09;;;;;;;24.08;11.90;;;-2.60;99.90;;;;;;4902471;29;20032;-73
2022/12/29 05:29:35;;;;;;;23.63;12.40;;;-2.70;99.90;;;;;;4902604;29;20077;-73
2022/12/29 05:32:00;;;;;;;26.40;11.63;;;-2.60;99.90;;;;;;4902435;29;20028;-73
2022/12/29 05:34:26;;;;;;;23.23;11.57;;;-2.60;99.90;;;;;;4902327;29;20066;-73
2022/12/29 05:36:52;;;;;;;22.75;11.52;;;-2.70;99.90;;;;;;4919218;29;20056;-73
2022/12/29 05:39:17;;;;;;;20.85;11.30;;;-2.70;99.90;;;;;;4919641;29;20032;-73
2022/12/29 05:41:43;;;;;;;23.65;12.25;;;-2.70;99.90;;;;;;4919616;29;20034;-72
2022/12/29 05:44:10;;;;;;;24.15;12.32;;;-2.70;99.90;;;;;;4909932;29;20024;-71
2022/12/29 05:46:36;;;;;;;27.10;12.98;;;-1.80;99.90;;;;;;4921548;29;20040;-72
2022/12/29 05:49:02;;;;;;;27.98;12.20;;;-2.60;99.90;;;;;;4938168;29;20023;-71
2022/12/29 05:51:27;;;;;;;26.60;11.85;;;-2.60;99.90;;;;;;4920813;29;20176;-72
2022/12/29 05:53:53;;;;;;;22.70;12.57;;;-2.60;99.90;;;;;;4938041;29;20028;-72
2022/12/29 05:56:19;;;;;;;29.65;11.65;;;-2.60;99.90;;;;;;4920944;29;20071;-71
2022/12/29 05:58:44;;;;;;;25.83;12.75;;;-2.70;99.90;;;;;;4920817;29;20460;-72
2022/12/29 06:01:10;;;;;;;23.70;11.18;;;-2.70;99.90;;;;;;4937662;29;20490;-73
2022/12/29 06:03:36;;;;;;;21.52;11.52;;;-2.80;99.90;;;;;;4937937;29;20031;-73
2022/12/29 06:06:01;;;;;;;23.48;11.25;;;-2.80;99.90;;;;;;4920594;29;20031;-73
2022/12/29 06:08:27;;;;;;;24.58;12.00;;;-2.80;99.90;;;;;;4920738;29;20031;-72
2022/12/29 06:10:52;;;;;;;24.05;12.10;;;-2.80;99.90;;;;;;4921032;29;20027;-72
2022/12/29 06:13:18;;;;;;;24.15;12.20;;;-2.70;99.90;;;;;;4937808;29;20027;-71
2022/12/29 06:15:44;;;;;;;21.92;12.00;;;-2.80;99.90;;;;;;4937765;29;20030;-71
2022/12/29 06:18:10;;;;;;;24.52;12.63;;;-2.70;99.90;;;;;;4937853;29;20055;-71
2022/12/29 06:20:35;;;;;;;24.80;12.13;;;-2.70;99.90;;;;;;4920569;29;20031;-72
2022/12/29 06:23:01;;;;;;;26.98;13.88;;;-1.90;99.90;;;;;;4920291;29;20032;-72
2022/12/29 06:25:28;;;;;;;21.83;12.10;;;-2.70;99.90;;;;;;4920385;29;20032;-72
2022/12/29 06:27:54;;;;;;;25.98;13.77;;;-2.70;99.90;;;;;;4920492;29;20034;-73
2022/12/29 06:30:19;;;;;;;27.27;13.48;;;-2.00;99.90;;;;;;4937624;29;20035;-72
2022/12/29 06:32:45;;;;;;;26.92;13.35;;;-2.70;99.90;;;;;;4937120;29;20115;-72
2022/12/29 06:35:11;;;;;;;40.42;18.38;;;-2.70;99.90;;;;;;4937121;29;20031;-72
2022/12/29 06:37:37;;;;;;;78.55;34.70;;;-2.60;99.90;;;;;;4937586;29;20374;-72
2022/12/29 06:40:03;;;;;;;66.93;28.40;;;-2.60;99.90;;;;;;4920214;29;20028;-72
2022/12/29 06:42:28;;;;;;;47.10;23.30;;;-2.60;99.90;;;;;;4920672;29;20123;-72
2022/12/29 06:44:57;;;;;;;34.22;17.98;;;-2.40;99.90;;;;;;4937537;29;20046;-76
2022/12/29 06:47:22;;;;;;;37.67;18.40;;;-2.50;99.90;;;;;;4937769;29;20028;-73
2022/12/29 06:49:48;;;;;;;31.38;15.82;;;-2.50;99.90;;;;;;4939294;29;20035;-73
2022/12/29 06:52:14;;;;;;;25.85;15.45;;;-2.50;99.90;;;;;;4921963;29;20039;-74
2022/12/29 06:54:39;;;;;;;29.83;15.52;;;-2.50;99.90;;;;;;4920932;29;20031;-73
2022/12/29 06:57:05;;;;;;;28.08;13.98;;;-2.50;99.90;;;;;;4920520;29;20036;-74
2022/12/29 06:59:31;;;;;;;31.83;15.77;;;-2.50;99.90;;;;;;4936986;29;20039;-72
2022/12/29 07:01:56;;;;;;;33.08;16.48;;;-2.50;99.90;;;;;;4937595;29;20063;-73
2022/12/29 07:04:22;;;;;;;29.42;15.02;;;-2.40;99.90;;;;;;4920071;29;20393;-73
2022/12/29 07:06:48;;;;;;;26.65;15.32;;;-2.30;99.90;;;;;;4921813;29;20388;-73
2022/12/29 07:09:13;;;;;;;32.55;15.23;;;-2.30;99.90;;;;;;4940651;29;20034;-73
2022/12/29 07:11:39;;;;;;;34.30;15.88;;;-1.90;99.90;;;;;;4939462;29;20028;-73
2022/12/29 07:14:05;;;;;;;26.70;15.23;;;-2.10;99.90;;;;;;4921726;29;20028;-73
2022/12/29 07:16:31;;;;;;;30.67;15.02;;;-2.10;99.90;;;;;;4937696;29;20088;-72
2022/12/29 07:18:59;;;;;;;32.25;16.05;;;-2.00;99.90;;;;;;4937366;29;20106;-72
2022/12/29 07:21:25;;;;;;;29.80;15.98;;;-2.00;99.90;;;;;;4919951;29;20104;-72
2022/12/29 07:23:50;;;;;;;28.50;15.27;;;-1.90;99.90;;;;;;4921220;29;20032;-72
2022/12/29 07:26:19;;;;;;;29.45;15.82;;;-1.80;99.90;;;;;;4920059;29;20130;-72
2022/12/29 07:28:45;;;;;;;28.70;16.05;;;-1.70;99.90;;;;;;4936981;29;20035;-72
2022/12/29 07:31:18;;;;;;;36.28;17.40;;;-1.60;99.90;;;;;;4937092;29;20032;-72
2022/12/29 07:33:44;;;;;;;36.88;16.90;;;-1.60;99.90;;;;;;4920264;29;20027;-72
2022/12/29 07:36:11;;;;;;;34.90;16.58;;;-1.50;99.90;;;;;;4937294;29;20051;-72
2022/12/29 07:38:38;;;;;;;35.67;17.55;;;-1.50;99.90;;;;;;4920484;29;20031;-72
2022/12/29 07:41:04;;;;;;;31.48;16.80;;;-1.30;99.90;;;;;;4937532;29;20520;-72
2022/12/29 07:43:30;;;;;;;29.83;16.45;;;-1.40;99.90;;;;;;4937910;29;20461;-72
2022/12/29 07:45:55;;;;;;;32.95;16.48;;;-1.30;99.90;;;;;;4922655;29;20132;-72
2022/12/29 07:48:21;;;;;;;34.55;18.10;;;-1.20;99.90;;;;;;4941094;29;20059;-72
2022/12/29 07:50:47;;;;;;;36.25;18.70;;;-1.10;99.90;;;;;;4923606;29;20465;-72
2022/12/29 07:53:12;;;;;;;37.78;19.05;;;-1.00;99.90;;;;;;4924125;29;20032;-72
2022/12/29 07:55:38;;;;;;;38.58;17.98;;;-1.00;99.90;;;;;;4923760;29;20460;-70
2022/12/29 07:58:04;;;;;;;35.67;17.75;;;-0.90;99.90;;;;;;4941404;29;20050;-72
2022/12/29 08:00:29;;;;;;;38.50;18.52;;;-0.80;99.90;;;;;;4923891;29;20075;-72
2022/12/29 08:02:55;;;;;;;42.70;20.35;;;-0.70;99.90;;;;;;4940889;29;20044;-72
2022/12/29 08:05:21;;;;;;;44.80;19.77;;;-0.60;99.90;;;;;;4940638;29;20039;-73
2022/12/29 08:07:47;;;;;;;41.63;20.17;;;-0.60;99.90;;;;;;4940679;29;20032;-72
2022/12/29 08:10:13;;;;;;;44.08;20.17;;;-0.50;99.90;;;;;;4940512;29;20062;-72
2022/12/29 08:12:40;;;;;;;43.75;19.83;;;-0.40;99.90;;;;;;4940435;29;20024;-72
2022/12/29 08:15:07;;;;;;;47.88;21.58;;;-0.40;99.90;;;;;;4940421;29;20481;-72
2022/12/29 08:17:33;;;;;;;44.83;20.30;;;-0.40;99.90;;;;;;4923829;29;20376;-72
2022/12/29 08:19:59;;;;;;;47.65;21.70;;;-0.30;99.90;;;;;;4939961;29;20114;-72
2022/12/29 08:22:24;;;;;;;47.92;20.48;;;-0.30;99.90;;;;;;4923191;29;20028;-72
2022/12/29 08:24:51;;;;;;;61.40;21.67;;;-0.20;99.90;;;;;;4939678;29;20032;-72
2022/12/29 08:27:17;;;;;;;52.45;20.60;;;-0.10;99.90;;;;;;4922757;29;20526;-72
2022/12/29 08:29:43;;;;;;;51.47;21.05;;;-0.20;99.90;;;;;;4922808;29;20040;-72
2022/12/29 08:32:08;;;;;;;56.55;22.23;;;-0.10;99.90;;;;;;4939751;29;20028;-72
2022/12/29 08:34:34;;;;;;;58.13;21.40;;;-0.10;99.90;;;;;;4939265;29;20176;-72
2022/12/29 08:37:00;;;;;;;53.65;22.00;;;0.00;99.90;;;;;;4939922;29;20052;-72
2022/12/29 08:39:25;;;;;;;53.95;22.02;;;0.00;99.90;;;;;;4939673;29;20032;-72
2022/12/29 08:41:51;;;;;;;66.88;23.58;;;0.10;99.90;;;;;;4939662;29;20027;-72
2022/12/29 08:44:16;;;;;;;56.95;22.58;;;0.10;99.90;;;;;;4939444;29;20032;-72
2022/12/29 08:46:42;;;;;;;79.80;22.98;;;0.20;99.90;;;;;;4922455;29;20487;-72
2022/12/29 08:49:08;;;;;;;66.57;21.92;;;0.20;99.90;;;;;;4939470;29;20354;-72
2022/12/29 08:51:33;;;;;;;63.33;24.35;;;0.20;99.90;;;;;;4922308;29;20445;-72
2022/12/29 08:53:59;;;;;;;65.13;23.30;;;0.20;99.90;;;;;;4939225;29;20028;-71
2022/12/29 08:56:25;;;;;;;63.42;23.67;;;0.20;99.90;;;;;;4942115;29;20039;-71
2022/12/29 08:58:52;;;;;;;52.58;21.95;;;0.20;99.90;;;;;;4925730;29;20028;-72
2022/12/29 09:01:18;;;;;;;58.78;21.95;;;0.20;99.90;;;;;;4941244;29;20032;-72
2022/12/29 09:03:43;;;;;;;59.10;22.95;;;0.30;99.90;;;;;;4940434;29;20032;-71
2022/12/29 09:06:09;;;;;;;63.22;21.52;;;0.30;99.90;;;;;;4940236;29;20114;-71
2022/12/29 09:08:35;;;;;;;63.90;22.10;;;0.40;99.90;;;;;;4922850;29;20027;-71
2022/12/29 09:11:09;;;;;;;56.55;22.67;;;0.40;99.90;;;;;;4939226;29;20051;-72
2022/12/29 09:13:35;;;;;;;59.60;21.27;;;0.40;99.90;;;;;;4921776;29;20035;-72
2022/12/29 09:16:01;;;;;;;61.78;21.17;;;0.40;99.90;;;;;;4939556;29;20028;-71
2022/12/29 09:18:26;;;;;;;78.10;21.73;;;0.40;99.90;;;;;;4938832;29;20086;-71
2022/12/29 09:21:02;;;;;;;71.18;22.63;;;0.40;99.90;;;;;;4921854;29;20447;-71
2022/12/29 09:23:28;;;;;;;62.80;23.13;;;0.40;99.90;;;;;;4938657;29;20055;-72
2022/12/29 09:25:54;;;;;;;67.70;22.48;;;0.40;99.90;;;;;;4938496;29;20036;-72
2022/12/29 09:28:21;;;;;;;74.25;23.48;;;0.50;99.90;;;;;;4921835;29;20368;-72
2022/12/29 09:30:47;;;;;;;64.50;22.02;;;0.50;99.90;;;;;;4921607;29;20090;-74
2022/12/29 09:33:13;;;;;;;58.63;24.17;;;0.50;99.90;;;;;;4921640;29;20039;-72
2022/12/29 09:35:49;;;;;;;68.03;23.38;;;0.60;99.90;;;;;;4939246;29;20035;-72
2022/12/29 09:38:16;;;;;;;54.30;23.35;;;0.60;99.90;;;;;;4939260;29;20122;-72
2022/12/29 09:40:45;;;;;;;57.55;23.05;;;0.60;99.90;;;;;;4939468;29;20036;-72
2022/12/29 09:43:32;;;;;;;58.92;24.02;;;0.60;99.90;;;;;;4939283;29;20059;-73
2022/12/29 09:46:17;;;;;;;61.72;23.88;;;0.60;99.90;;;;;;4921334;29;20047;-72
2022/12/29 09:48:50;;;;;;;53.55;23.23;;;0.60;99.90;;;;;;4938822;29;20028;-72
2022/12/29 09:51:21;;;;;;;54.53;23.20;;;0.60;99.90;;;;;;4921705;29;20171;-73
2022/12/29 09:54:02;;;;;;;63.70;23.10;;;0.70;99.90;;;;;;4938919;29;20024;-73
2022/12/29 09:56:28;;;;;;;58.53;22.85;;;0.70;99.90;;;;;;4938920;29;20114;-73
2022/12/29 09:59:10;;;;;;;52.50;22.95;;;0.80;99.90;;;;;;4938875;29;20063;-73
2022/12/29 10:01:53;;;;;;;51.63;22.33;;;0.80;99.90;;;;;;4921566;29;20468;-73
2022/12/29 10:04:19;;;;;;;50.63;23.02;;;0.90;99.90;;;;;;4937967;29;20059;-73
2022/12/29 10:06:56;;;;;;;54.75;23.58;;;0.90;99.90;;;;;;4938469;29;20491;-73
2022/12/29 10:09:47;;;;;;;58.35;24.63;;;0.80;99.90;;;;;;4937197;29;20027;-73
2022/12/29 10:12:30;;;;;;;52.00;23.05;;;0.80;99.90;;;;;;4938242;29;20036;-72
2022/12/29 10:15:13;;;;;;;49.38;22.20;;;0.70;99.90;;;;;;4920719;29;20111;-72
2022/12/29 10:18:03;;;;;;;46.88;22.15;;;0.70;99.90;;;;;;4921081;29;20036;-72
2022/12/29 10:20:37;;;;;;;42.88;21.38;;;0.70;99.90;;;;;;4937588;29;20031;-72
2022/12/29 10:23:22;;;;;;;40.80;21.23;;;0.70;99.90;;;;;;4920693;29;20039;-72
2022/12/29 10:25:48;;;;;;;40.72;21.13;;;0.70;99.90;;;;;;4937278;29;20031;-72
2022/12/29 10:28:20;;;;;;;39.53;20.65;;;0.70;99.90;;;;;;4937201;29;20480;-72
2022/12/29 10:30:48;;;;;;;49.13;21.25;;;0.70;99.90;;;;;;4937618;29;20094;-72
2022/12/29 10:33:19;;;;;;;40.88;20.50;;;0.60;99.90;;;;;;4937564;29;20023;-71
2022/12/29 10:35:47;;;;;;;40.15;20.13;;;0.70;99.90;;;;;;4920333;29;20040;-71
2022/12/29 10:38:20;;;;;;;47.30;21.27;;;0.60;99.90;;;;;;4936954;29;20389;-71
2022/12/29 10:40:55;;;;;;;45.85;20.42;;;0.50;99.90;;;;;;4937153;29;20057;-71
2022/12/29 10:43:24;;;;;;;48.15;20.05;;;0.50;99.90;;;;;;4921734;29;20028;-71
2022/12/29 10:45:51;;;;;;;;;;;0.40;99.90;;;;;;4940924;29;20039;-71
2022/12/29 10:48:23;;;;;;;43.53;17.95;;;0.40;99.90;;;;;;4940811;29;20259;-71
2022/12/29 10:50:50;;;;;;;48.20;20.27;;;0.40;99.90;;;;;;4939664;29;20035;-71
2022/12/29 10:53:23;;;;;;;47.17;20.52;;;0.40;99.90;;;;;;4939445;29;20036;-71
2022/12/29 10:55:50;;;;;;;52.08;21.63;;;0.40;99.90;;;;;;4937845;29;20122;-72
2022/12/29 10:58:17;;;;;;;60.15;22.60;;;0.50;99.90;;;;;;4920002;29;20039;-71
2022/12/29 11:00:48;;;;;;;48.42;21.27;;;0.50;99.90;;;;;;4936985;29;20024;-72
2022/12/29 11:03:33;;;;;;;53.08;22.42;;;0.60;99.90;;;;;;4919781;29;20138;-72
2022/12/29 11:06:12;;;;;;;49.53;22.45;;;0.60;99.90;;;;;;4936843;29;20044;-71
2022/12/29 11:08:45;;;;;;;49.10;21.83;;;0.70;99.90;;;;;;4936796;29;20032;-71
2022/12/29 11:11:11;;;;;;;51.30;22.73;;;0.70;99.90;;;;;;4936747;29;20106;-70
2022/12/29 11:13:58;;;;;;;52.67;23.23;;;0.70;99.90;;;;;;4919577;29;20059;-70
2022/12/29 11:16:33;;;;;;;47.10;21.38;;;0.80;99.90;;;;;;4919591;29;20396;-70
2022/12/29 11:18:59;;;;;;;56.38;23.88;;;0.80;99.90;;;;;;4936854;29;20032;-71
2022/12/29 11:21:33;;;;;;;51.40;22.70;;;0.80;99.90;;;;;;4923725;29;20034;-71
2022/12/29 11:24:18;;;;;;;56.80;22.73;;;0.90;99.90;;;;;;4924177;29;20075;-70
2022/12/29 11:26:44;;;;;;;48.13;21.52;;;0.80;99.90;;;;;;4940612;29;20039;-71
2022/12/29 11:29:16;;;;;;;55.10;22.40;;;0.80;99.90;;;;;;4940490;29;20019;-71
2022/12/29 11:31:45;;;;;;;50.20;22.75;;;0.80;99.90;;;;;;4923352;29;20086;-70
2022/12/29 11:34:20;;;;;;;49.67;21.95;;;0.90;99.90;;;;;;4940642;29;20032;-71
2022/12/29 11:36:48;;;;;;;47.22;21.42;;;0.90;99.90;;;;;;4923154;29;20456;-71
2022/12/29 11:39:29;;;;;;;48.80;21.55;;;1.00;99.90;;;;;;4940637;29;20027;-71
2022/12/29 11:41:54;;;;;;;46.60;21.73;;;1.00;99.90;;;;;;4940415;29;20026;-71
2022/12/29 11:44:20;;;;;;;46.63;21.90;;;1.10;99.90;;;;;;4940117;29;20439;-71
2022/12/29 11:46:49;;;;;;;54.40;23.50;;;1.10;99.90;;;;;;4923356;29;20043;-71
2022/12/29 11:49:22;;;;;;;46.30;20.98;;;1.10;99.90;;;;;;4940276;29;20028;-70
2022/12/29 11:51:49;;;;;;;50.08;21.67;;;1.10;99.90;;;;;;4940295;29;20453;-70
2022/12/29 11:54:30;;;;;;;48.65;21.40;;;1.20;99.90;;;;;;4922977;29;20089;-71
2022/12/29 11:56:57;;;;;;;50.08;21.73;;;1.20;99.90;;;;;;4922946;29;20031;-70
2022/12/29 11:59:31;;;;;;;50.25;21.33;;;1.10;99.90;;;;;;4940132;29;20524;-70
2022/12/29 12:01:59;;;;;;;45.33;21.48;;;1.20;99.90;;;;;;4923187;29;20563;-70
2022/12/29 12:04:28;;;;;;;48.60;21.48;;;1.20;99.90;;;;;;4939775;29;20098;-70
2022/12/29 12:07:12;;;;;;;54.30;22.50;;;1.20;99.90;;;;;;4939850;29;20111;-71
2022/12/29 12:09:51;;;;;;;51.72;21.52;;;1.30;99.90;;;;;;4939900;29;20055;-71
2022/12/29 12:12:39;;;;;;;48.65;21.05;;;1.30;99.90;;;;;;4922966;29;20032;-71
2022/12/29 12:15:08;;;;;;;48.30;21.45;;;1.30;99.90;;;;;;4939587;29;20027;-71
2022/12/29 12:17:51;;;;;;;55.33;22.58;;;1.40;99.90;;;;;;4922718;29;20452;-70
2022/12/29 12:20:21;;;;;;;48.85;21.45;;;1.30;99.90;;;;;;4922727;29;20428;-70
2022/12/29 12:23:05;;;;;;;50.53;22.17;;;1.30;99.90;;;;;;4922884;29;20122;-70
2022/12/29 12:25:44;;;;;;;47.10;20.92;;;1.30;99.90;;;;;;4939383;29;20503;-71
2022/12/29 12:28:22;;;;;;;47.85;20.60;;;1.30;99.90;;;;;;4922443;29;20035;-71
2022/12/29 12:30:52;;;;;;;47.45;22.65;;;1.40;99.90;;;;;;4939046;29;20440;-70
2022/12/29 12:33:41;;;;;;;46.42;20.23;;;1.40;99.90;;;;;;4921953;29;20032;-70
2022/12/29 12:36:42;;;;;;;49.55;22.30;;;1.40;99.90;;;;;;4939217;29;20031;-70
2022/12/29 12:39:42;;;;;;;47.90;21.70;;;1.40;99.90;;;;;;4843417;29;20030;-70
2022/12/29 12:42:20;;;;;;;159.52;74.30;;;1.50;99.90;;;;;;4846522;29;20388;-70
2022/12/29 12:45:04;;;;;;;55.20;25.90;;;1.50;99.90;;;;;;4929590;29;20056;-70
2022/12/29 12:48:02;;;;;;;51.67;24.10;;;1.40;99.90;;;;;;4922280;29;20062;-70
2022/12/29 12:51:06;;;;;;;52.50;23.75;;;1.50;99.90;;;;;;4881143;29;20032;-71
2022/12/29 12:53:41;;;;;;;50.97;23.73;;;1.50;99.90;;;;;;4904635;29;20524;-71
2022/12/29 12:56:16;;;;;;;49.63;22.50;;;1.70;99.90;;;;;;4941564;29;20036;-70
2022/12/29 12:58:51;;;;;;;50.38;23.10;;;1.70;99.90;;;;;;4923107;29;20038;-70
2022/12/29 13:01:38;;;;;;;48.90;22.50;;;1.80;99.90;;;;;;4939421;29;20032;-70
2022/12/29 13:04:43;;;;;;;53.72;25.08;;;1.80;99.90;;;;;;4938782;29;20385;-69
2022/12/29 13:07:30;;;;;;;51.25;24.73;;;1.80;99.90;;;;;;4922093;29;20468;-70
2022/12/29 13:10:18;;;;;;;48.50;21.88;;;1.90;99.90;;;;;;4939184;29;20036;-70
2022/12/29 13:13:10;;;;;;;52.10;23.88;;;1.90;99.90;;;;;;4922123;29;20114;-70
2022/12/29 13:16:09;;;;;;;53.53;24.73;;;1.90;99.90;;;;;;4938947;29;20039;-69
2022/12/29 13:18:46;;;;;;;;;;;1.90;99.90;;;;;;4939224;29;20066;-70
2022/12/29 13:21:49;;;;;;;59.13;30.50;;;1.90;99.90;;;;;;4938664;29;20386;-70
2022/12/29 13:24:23;;;;;;;52.53;24.05;;;1.90;99.90;;;;;;4921640;29;20032;-70